Time;durP1;ratioP1;P1;durP2;ratioP2;P2;SDS_P1;SDS_P2;PMS_P1;PMS_P2;Temp;Humidity;BMP_temperature;BMP_pressure;BME280_temperature;BME280_humidity;BME280_pressure;Samples;Min_cycle;Max_cycle;Signal;HPM_P1;HPM_P2
2022/12/06 00:00:52;;;;;;;;;;;;;;;18.92;43.00;101554.47;5130675;28;19962;-42
2022/12/06 00:03:18;;;;;;;;;;;;;;;18.94;42.83;101556.97;5127831;28;19923;-44
2022/12/06 00:05:44;;;;;;;;;;;;;;;18.94;43.17;101549.50;5128169;28;19931;-43
2022/12/06 00:08:11;;;;;;;;;;;;;;;18.93;42.85;101549.78;5129983;28;19930;-41
2022/12/06 00:10:37;;;;;;;;;;;;;;;18.94;43.12;101552.25;5124179;28;19923;-41
2022/12/06 00:13:03;;;;;;;;;;;;;;;18.92;42.95;101542.59;5129863;28;20311;-43
2022/12/06 00:15:29;;;;;;;;;;;;;;;18.93;43.10;101550.59;5109777;28;19984;-42
2022/12/06 00:17:54;;;;;;;;;;;;;;;18.95;43.11;101553.09;5113228;28;19923;-41
2022/12/06 00:20:20;;;;;;;;;;;;;;;18.94;42.95;101551.44;5130768;28;20367;-41
2022/12/06 00:22:45;;;;;;;;;;;;;;;18.94;42.91;101548.69;5112244;28;19927;-42
2022/12/06 00:25:11;;;;;;;;;;;;;;;18.93;43.05;101553.38;5130662;28;19930;-44
2022/12/06 00:27:36;;;;;;;;;;;;;;;18.93;43.00;101549.78;5128900;28;20406;-41
2022/12/06 00:30:02;;;;;;;;;;;;;;;18.93;43.10;101556.13;5130070;28;19934;-42
2022/12/06 00:32:28;;;;;;;;;;;;;;;18.91;42.96;101547.28;5129678;28;19974;-41
2022/12/06 00:34:54;;;;;;;;;;;;;;;18.92;43.11;101543.44;5127792;28;19930;-41
2022/12/06 00:37:19;;;;;;;;;;;;;;;18.93;42.89;101547.84;5130639;28;19967;-43
2022/12/06 00:39:45;;;;;;;;;;;;;;;18.93;43.04;101544.25;5128153;28;20366;-41
2022/12/06 00:42:10;;;;;;;;;;;;;;;18.92;43.14;101546.19;5130481;28;19923;-41
2022/12/06 00:44:36;;;;;;;;;;;;;;;18.93;42.97;101545.09;5126553;28;20401;-42
2022/12/06 00:47:02;;;;;;;;;;;;;;;18.91;43.17;101546.44;5129119;28;19923;-41
2022/12/06 00:49:27;;;;;;;;;;;;;;;18.91;42.99;101543.69;5130887;27;19923;-41
2022/12/06 00:51:53;;;;;;;;;;;;;;;18.90;42.86;101540.09;5130089;28;19930;-41
2022/12/06 00:54:18;;;;;;;;;;;;;;;18.92;43.02;101540.66;5125859;27;19950;-41
2022/12/06 00:56:44;;;;;;;;;;;;;;;18.91;42.89;101538.16;5131087;28;20389;-41
2022/12/06 00:59:10;;;;;;;;;;;;;;;18.90;42.80;101526.28;5129200;28;19976;-40
2022/12/06 01:01:35;;;;;;;;;;;;;;;18.90;43.06;101534.56;5127050;28;19938;-42
2022/12/06 01:04:02;;;;;;;;;;;;;;;18.90;42.92;101542.84;5126250;28;19924;-42
2022/12/06 01:06:30;;;;;;;;;;;;;;;18.91;42.73;101538.16;5128175;28;19971;-41
2022/12/06 01:08:57;;;;;;;;;;;;;;;18.91;42.87;101540.91;5111999;28;19971;-41
2022/12/06 01:11:23;;;;;;;;;;;;;;;18.90;42.99;101540.09;5110603;28;19932;-41
2022/12/06 01:13:49;;;;;;;;;;;;;;;18.89;43.07;101543.94;5124068;28;20601;-41
2022/12/06 01:16:16;;;;;;;;;;;;;;;18.90;43.02;101545.59;5111738;28;19985;-42
2022/12/06 01:18:41;;;;;;;;;;;;;;;18.90;42.68;101547.53;5111271;28;20397;-41
2022/12/06 01:21:08;;;;;;;;;;;;;;;18.90;42.64;101544.78;5130850;28;19971;-42
2022/12/06 01:23:34;;;;;;;;;;;;;;;18.89;42.92;101535.66;5111439;28;20364;-41
2022/12/06 01:25:59;;;;;;;;;;;;;;;18.88;42.95;101541.47;5127853;28;19924;-41
2022/12/06 01:28:25;;;;;;;;;;;;;;;18.89;42.90;101538.44;5128386;28;20276;-43
2022/12/06 01:30:50;;;;;;;;;;;;;;;18.89;42.87;101540.38;5129155;28;19930;-41
2022/12/06 01:33:16;;;;;;;;;;;;;;;18.88;42.72;101539.53;5125482;28;19935;-41
2022/12/06 01:35:42;;;;;;;;;;;;;;;18.88;42.88;101545.06;5128578;28;19931;-43
2022/12/06 01:38:07;;;;;;;;;;;;;;;18.88;42.93;101539.53;5129918;28;19927;-42
2022/12/06 01:40:37;;;;;;;;;;;;;;;18.88;43.03;101545.06;5128428;28;20295;-41
2022/12/06 01:43:03;;;;;;;;;;;;;;;18.88;42.70;101546.97;5129432;28;20375;-41
2022/12/06 01:45:28;;;;;;;;;;;;;;;18.88;42.65;101546.97;5124237;28;19950;-43
2022/12/06 01:47:54;;;;;;;;;;;;;;;18.88;42.78;101541.47;5129795;27;20347;-42
2022/12/06 01:50:22;;;;;;;;;;;;;;;18.87;43.07;101537.88;5129808;28;19991;-44
2022/12/06 01:52:51;;;;;;;;;;;;;;;18.88;42.82;101538.69;5127572;28;19967;-41
2022/12/06 01:55:17;;;;;;;;;;;;;;;18.87;42.94;101543.41;5107832;28;20039;-42
2022/12/06 01:57:42;;;;;;;;;;;;;;;18.87;42.99;101537.88;5110241;28;20010;-41
2022/12/06 02:00:08;;;;;;;;;;;;;;;18.87;42.65;101539.78;5128259;28;20043;-41
2022/12/06 02:02:34;;;;;;;;;;;;;;;18.87;42.82;101542.53;5110664;28;19924;-41
2022/12/06 02:04:59;;;;;;;;;;;;;;;18.86;42.53;101541.72;5127841;28;19946;-41
2022/12/06 02:07:26;;;;;;;;;;;;;;;18.87;42.89;101539.78;5128674;27;19924;-42
2022/12/06 02:09:51;;;;;;;;;;;;;;;18.86;42.98;101536.19;5127923;28;19975;-41
2022/12/06 02:12:17;;;;;;;;;;;;;;;18.86;42.82;101536.19;5110753;28;19927;-41
2022/12/06 02:14:43;;;;;;;;;;;;;;;18.86;42.83;101532.59;5127913;28;19927;-41
2022/12/06 02:17:13;;;;;;;;;;;;;;;18.86;42.76;101530.66;5128692;28;19970;-42
2022/12/06 02:19:58;;;;;;;;;;;;;;;18.86;42.68;101535.38;5127399;28;19927;-41
2022/12/06 02:22:44;;;;;;;;;;;;;;;18.85;42.50;101530.94;5114705;28;19923;-41
2022/12/06 02:28:20;;;;;;;;;;;;;;;18.83;42.82;101528.47;5168370;27;20408;-42
2022/12/06 02:31:03;;;;;;;;;;;;;;;18.84;42.56;101524.59;5150495;27;20464;-43
2022/12/06 02:33:35;;;;;;;;;;;;;;;18.84;42.74;101524.59;5168165;27;19931;-41
2022/12/06 02:36:07;;;;;;;;;;;;;;;18.84;42.82;101530.13;5148043;27;20381;-43
2022/12/06 02:38:34;;;;;;;;;;;;;;;18.83;42.77;101516.59;5147776;27;20413;-41
2022/12/06 02:41:00;;;;;;;;;;;;;;;18.84;42.84;101519.06;5166818;27;19947;-43
2022/12/06 02:43:27;;;;;;;;;;;;;;;18.83;42.83;101520.19;5146337;27;21042;-41
2022/12/06 02:45:53;;;;;;;;;;;;;;;18.83;42.64;101517.41;5162013;27;20014;-44
2022/12/06 02:48:19;;;;;;;;;;;;;;;18.83;42.68;101522.13;5167769;27;19927;-43
2022/12/06 02:50:51;;;;;;;;;;;;;;;18.84;42.77;101521.00;5165714;27;20030;-43
2022/12/06 02:53:17;;;;;;;;;;;;;;;18.83;42.88;101514.66;5166019;27;19969;-41
2022/12/06 02:55:43;;;;;;;;;;;;;;;18.83;42.64;101514.66;5165561;27;20017;-43
2022/12/06 02:58:08;;;;;;;;;;;;;;;18.83;42.88;101513.84;5166448;27;19923;-42
2022/12/06 03:00:36;;;;;;;;;;;;;;;18.82;42.58;101518.50;5165777;27;19927;-42
2022/12/06 03:03:22;;;;;;;;;;;;;;;18.83;42.58;101516.59;5135462;27;20019;-42
2022/12/06 03:06:07;;;;;;;;;;;;;;;18.82;42.79;101509.38;5126320;27;20006;-43
2022/12/06 03:08:35;;;;;;;;;;;;;;;18.81;42.67;101505.81;5129503;27;20408;-41
2022/12/06 03:11:00;;;;;;;;;;;;;;;18.81;42.46;101511.31;5125442;27;20014;-43
2022/12/06 03:13:36;;;;;;;;;;;;;;;18.81;42.79;101511.31;5140714;27;20028;-42
2022/12/06 03:16:20;;;;;;;;;;;;;;;18.82;42.68;101512.16;5140601;27;19943;-42
2022/12/06 03:18:51;;;;;;;;;;;;;;;18.81;42.75;101514.09;5145947;27;20393;-42
2022/12/06 03:21:18;;;;;;;;;;;;;;;18.80;42.55;101509.66;5126157;27;20051;-41
2022/12/06 03:23:44;;;;;;;;;;;;;;;18.80;42.81;101504.16;5142271;27;20019;-41
2022/12/06 03:26:10;;;;;;;;;;;;;;;18.81;42.31;101511.31;5127309;27;19923;-43
2022/12/06 03:28:36;;;;;;;;;;;;;;;18.80;42.15;101507.72;5125662;27;19971;-41
2022/12/06 03:31:02;;;;;;;;;;;;;;;18.80;42.42;101512.41;5145863;27;19923;-42
2022/12/06 03:33:28;;;;;;;;;;;;;;;18.79;42.70;101505.25;5123789;27;19923;-42
2022/12/06 03:35:54;;;;;;;;;;;;;;;18.79;42.37;101503.31;5141675;27;19930;-41
2022/12/06 03:38:22;;;;;;;;;;;;;;;18.79;42.45;101500.56;5133446;27;19930;-42
2022/12/06 03:40:48;;;;;;;;;;;;;;;18.79;42.63;101500.56;5131303;28;19973;-41
2022/12/06 03:43:13;;;;;;;;;;;;;;;18.78;42.43;101504.41;5128428;28;19924;-41
2022/12/06 03:45:40;;;;;;;;;;;;;;;18.78;42.36;101501.66;5116238;28;19927;-41
2022/12/06 03:48:08;;;;;;;;;;;;;;;18.78;42.55;101506.31;5131330;28;19931;-42
2022/12/06 03:50:35;;;;;;;;;;;;;;;18.78;42.52;101496.13;5130813;28;19974;-41
2022/12/06 03:53:01;;;;;;;;;;;;;;;18.78;42.57;101501.66;5130638;28;19978;-42
2022/12/06 03:55:26;;;;;;;;;;;;;;;18.77;42.51;101499.97;5131756;28;19924;-43
2022/12/06 03:57:52;;;;;;;;;;;;;;;18.79;42.42;101508.00;5112393;28;20333;-40
2022/12/06 04:00:18;;;;;;;;;;;;;;;18.78;42.62;101506.31;5131139;28;19923;-41
2022/12/06 04:02:43;;;;;;;;;;;;;;;18.77;42.70;101513.78;5130766;27;20264;-43
2022/12/06 04:05:09;;;;;;;;;;;;;;;18.77;42.48;101516.53;5111842;28;19927;-45
2022/12/06 04:07:34;;;;;;;;;;;;;;;18.77;42.72;101504.66;5129533;28;20006;-46
2022/12/06 04:10:02;;;;;;;;;;;;;;;18.76;42.47;101498.31;5131296;28;19930;-44
2022/12/06 04:12:59;;;;;;;;;;;;;;;18.77;42.73;101497.22;5130229;28;19958;-44
2022/12/06 04:15:14;;;;;;;;;;;;;;;18.76;42.61;101501.06;5101142;28;19969;-45
2022/12/06 04:20:26;;;;;;;;;;;;;;;18.75;42.32;101499.41;5115753;28;20434;-45
2022/12/06 04:23:07;;;;;;;;;;;;;;;18.75;41.98;101499.41;5111187;28;20219;-45
2022/12/06 04:25:33;;;;;;;;;;;;;;;18.75;42.49;101499.41;5114264;28;19970;-44
2022/12/06 04:39:00;;;;;;;;;;;;;;;18.76;42.39;101503.00;5114632;28;19966;-44
2022/12/06 04:44:11;;;;;;;;;;;;;;;18.73;42.73;101501.59;5113279;27;20098;-45
2022/12/06 04:46:37;;;;;;;;;;;;;;;18.74;42.14;101503.28;5129666;28;19952;-43
2022/12/06 04:49:03;;;;;;;;;;;;;;;18.74;42.04;101499.69;5112433;27;19939;-44
2022/12/06 04:51:28;;;;;;;;;;;;;;;18.73;42.26;101498.00;5127651;28;19931;-43
2022/12/06 04:53:54;;;;;;;;;;;;;;;18.73;42.51;101498.84;5129210;28;20595;-43
2022/12/06 04:56:19;;;;;;;;;;;;;;;18.73;42.38;101492.50;5130594;28;19924;-45
2022/12/06 04:58:45;;;;;;;;;;;;;;;18.72;42.56;101493.59;5128476;28;20383;-44
2022/12/06 05:01:11;;;;;;;;;;;;;;;18.72;42.52;101488.06;5126043;28;19923;-46
2022/12/06 05:03:36;;;;;;;;;;;;;;;18.71;42.14;101492.75;5126631;27;19932;-44
2022/12/06 05:06:09;;;;;;;;;;;;;;;18.72;42.46;101494.41;5129662;27;20342;-44
2022/12/06 05:08:34;;;;;;;;;;;;;;;18.72;42.44;101504.63;5127979;28;19935;-45
2022/12/06 05:11:00;;;;;;;;;;;;;;;18.70;42.28;101496.63;5130424;28;19946;-44
2022/12/06 05:13:25;;;;;;;;;;;;;;;18.73;42.54;101506.28;5128152;28;19953;-43
2022/12/06 05:15:52;;;;;;;;;;;;;;;18.71;42.31;101498.28;5123790;28;19932;-45
2022/12/06 05:18:17;;;;;;;;;;;;;;;18.70;42.41;101499.38;5131565;27;19929;-46
2022/12/06 05:20:43;;;;;;;;;;;;;;;18.71;42.42;101505.72;5128984;28;19931;-44
2022/12/06 05:23:09;;;;;;;;;;;;;;;18.71;42.45;101502.97;5129241;28;19924;-47
2022/12/06 05:25:34;;;;;;;;;;;;;;;18.70;42.23;101501.31;5128910;28;19927;-45
2022/12/06 05:28:00;;;;;;;;;;;;;;;18.71;42.31;101503.81;5129806;28;20010;-44
2022/12/06 05:30:25;;;;;;;;;;;;;;;18.70;42.09;101507.66;5129470;28;20113;-44
2022/12/06 05:32:51;;;;;;;;;;;;;;;18.71;42.28;101494.69;5126409;28;19975;-45
2022/12/06 05:35:22;;;;;;;;;;;;;;;18.71;42.23;101494.69;5126884;28;19923;-44
2022/12/06 05:37:47;;;;;;;;;;;;;;;18.69;42.52;101494.94;5129300;28;20305;-45
2022/12/06 05:40:13;;;;;;;;;;;;;;;18.69;42.44;101494.94;5128409;28;19923;-44
2022/12/06 05:42:39;;;;;;;;;;;;;;;18.69;42.41;101499.59;5126233;28;19930;-44
2022/12/06 05:45:05;;;;;;;;;;;;;;;18.70;42.41;101498.56;5104160;28;20394;-44
2022/12/06 05:47:30;;;;;;;;;;;;;;;18.69;42.61;101494.09;5129493;28;19935;-45
2022/12/06 05:49:56;;;;;;;;;;;;;;;18.69;42.43;101491.31;5129618;28;19931;-44
2022/12/06 05:52:21;;;;;;;;;;;;;;;18.68;42.78;101486.91;5130273;28;20333;-45
2022/12/06 05:54:47;;;;;;;;;;;;;;;18.68;42.12;101493.25;5128524;28;19977;-44
2022/12/06 05:57:12;;;;;;;;;;;;;;;18.67;42.29;101499.88;5127850;28;19924;-44
2022/12/06 05:59:38;;;;;;;;;;;;;;;18.66;42.13;101498.22;5125662;28;19927;-44
2022/12/06 06:02:04;;;;;;;;;;;;;;;18.67;42.24;101501.81;5129607;27;19975;-44
2022/12/06 06:04:29;;;;;;;;;;;;;;;18.67;42.47;101502.63;5123854;28;20389;-44
2022/12/06 06:06:55;;;;;;;;;;;;;;;18.68;42.43;101500.69;5128346;28;20271;-43
2022/12/06 06:09:20;;;;;;;;;;;;;;;18.66;42.11;101487.19;5128675;28;19924;-44
2022/12/06 06:11:46;;;;;;;;;;;;;;;18.68;42.65;101492.41;5128022;28;19947;-46
2022/12/06 06:14:11;;;;;;;;;;;;;;;18.67;42.29;101499.88;5125201;28;19923;-47
2022/12/06 06:16:37;;;;;;;;;;;;;;;18.66;42.26;101498.22;5126149;28;20299;-46
2022/12/06 06:19:03;;;;;;;;;;;;;;;18.67;42.35;101502.63;5125387;28;19992;-44
2022/12/06 06:21:28;;;;;;;;;;;;;;;18.68;42.20;101506.22;5127089;28;20370;-45
2022/12/06 06:23:55;;;;;;;;;;;;;;;18.66;42.20;101500.97;5123930;28;19923;-49
2022/12/06 06:26:21;;;;;;;;;;;;;;;18.65;42.23;101502.06;5124489;28;20031;-45
2022/12/06 06:28:46;;;;;;;;;;;;;;;18.63;43.33;101500.66;5122816;28;19962;-43
2022/12/06 06:31:12;;;;;;;;;;;;;;;18.67;42.78;101499.88;5120413;27;19931;-46
2022/12/06 06:33:37;;;;;;;;;;;;;;;18.66;42.98;101498.22;5122890;28;19977;-45
2022/12/06 06:36:03;;;;;;;;;;;;;;;18.65;42.89;101499.31;5106312;28;19924;-43
2022/12/06 06:38:29;;;;;;;;;;;;;;;18.65;42.86;101495.69;5123926;28;19931;-45
2022/12/06 06:40:54;;;;;;;;;;;;;;;18.66;42.54;101494.63;5124315;28;19930;-44
2022/12/06 06:43:20;;;;;;;;;;;;;;;18.64;43.06;101494.88;5124691;27;19935;-45
2022/12/06 06:46:02;;;;;;;;;;;;;;;18.64;42.81;101492.13;5126779;28;19931;-45
2022/12/06 06:48:28;;;;;;;;;;;;;;;18.65;42.89;101490.19;5118624;28;19923;-43
2022/12/06 06:50:54;;;;;;;;;;;;;;;18.64;42.83;101494.03;5108332;28;19923;-44
2022/12/06 06:53:25;;;;;;;;;;;;;;;18.65;42.53;101501.22;5125482;28;19924;-46
2022/12/06 06:55:52;;;;;;;;;;;;;;;18.65;42.78;101503.97;5122696;27;19958;-45
2022/12/06 06:58:18;;;;;;;;;;;;;;;18.65;42.83;101515.00;5121595;28;20023;-47
2022/12/06 07:00:43;;;;;;;;;;;;;;;18.64;42.81;101499.56;5122839;28;19923;-43
2022/12/06 07:03:16;;;;;;;;;;;;;;;18.66;42.77;101508.44;5122042;27;19923;-43
2022/12/06 07:05:42;;;;;;;;;;;;;;;18.66;42.56;101498.22;5113097;27;19974;-43
2022/12/06 07:08:08;;;;;;;;;;;;;;;18.66;42.52;101500.97;5100124;28;19927;-46
2022/12/06 07:10:34;;;;;;;;;;;;;;;18.65;42.56;101496.56;5122597;28;19923;-44
2022/12/06 07:12:59;;;;;;;;;;;;;;;18.67;42.53;101493.53;5121959;27;19942;-45
2022/12/06 07:15:25;;;;;;;;;;;;;;;18.67;42.55;101496.28;5126811;27;20358;-46
2022/12/06 07:17:52;;;;;;;;;;;;;;;18.66;42.70;101498.22;5122818;28;20038;-43
2022/12/06 07:20:17;;;;;;;;;;;;;;;18.66;42.87;101494.63;5126578;27;19969;-45
2022/12/06 07:22:43;;;;;;;;;;;;;;;18.66;42.69;101495.47;5129792;28;19923;-47
2022/12/06 07:25:09;;;;;;;;;;;;;;;18.66;42.43;101503.72;5104032;28;19927;-47
2022/12/06 07:27:35;;;;;;;;;;;;;;;18.68;42.70;101497.94;5127639;27;19927;-43
2022/12/06 07:30:02;;;;;;;;;;;;;;;18.67;42.51;101491.59;5118986;28;20031;-43
2022/12/06 07:32:32;;;;;;;;;;;;;;;18.67;42.82;101494.34;5120222;28;20385;-44
2022/12/06 07:34:57;;;;;;;;;;;;;;;18.69;43.31;101496.84;5118728;28;19954;-57
2022/12/06 07:37:23;;;;;;;;;;;;;;;18.77;43.79;101504.66;5122242;28;19932;-46
2022/12/06 07:39:49;;;;;;;;;;;;;;;18.76;43.83;101494.72;5123151;28;19924;-43
2022/12/06 07:45:00;;;;;;;;;;;;;;;18.70;43.46;101502.16;5103057;28;19942;-43
2022/12/06 07:47:32;;;;;;;;;;;;;;;18.70;43.23;101504.91;5118837;28;19983;-45
2022/12/06 07:49:57;;;;;;;;;;;;;;;18.71;43.70;101503.81;5123520;27;20043;-45
2022/12/06 07:52:23;;;;;;;;;;;;;;;18.69;43.46;101500.47;5112332;28;19931;-47
2022/12/06 07:54:49;;;;;;;;;;;;;;;18.69;43.33;101502.34;5111896;28;20469;-44
2022/12/06 07:57:14;;;;;;;;;;;;;;;18.65;43.35;101498.47;5114217;27;19931;-45
2022/12/06 07:59:40;;;;;;;;;;;;;;;18.69;43.11;101505.97;5116961;28;19970;-44
2022/12/06 08:02:05;;;;;;;;;;;;;;;18.70;43.23;101510.41;5112948;27;19927;-44
2022/12/06 08:04:31;;;;;;;;;;;;;;;18.69;43.03;101511.50;5105576;27;20808;-45
2022/12/06 08:06:57;;;;;;;;;;;;;;;18.64;42.55;101524.38;5115158;27;19931;-44
2022/12/06 08:09:23;;;;;;;;;;;;;;;18.64;42.99;101516.94;5118471;27;19927;-45
2022/12/06 08:11:48;;;;;;;;;;;;;;;18.65;42.72;101520.53;5084112;28;20014;-43
2022/12/06 08:14:14;;;;;;;;;;;;;;;18.65;42.64;101520.53;5102867;27;19928;-45
2022/12/06 08:16:40;;;;;;;;;;;;;;;18.66;42.83;101527.72;5107498;27;19985;-43
2022/12/06 08:19:06;;;;;;;;;;;;;;;18.66;42.80;101531.31;5089239;27;20291;-43
2022/12/06 08:21:32;;;;;;;;;;;;;;;18.66;42.83;101528.56;5100276;27;19927;-45
2022/12/06 08:23:57;;;;;;;;;;;;;;;18.66;42.83;101530.50;5094035;27;20277;-45
2022/12/06 08:26:23;;;;;;;;;;;;;;;18.65;42.65;101532.41;5112911;27;20328;-44
2022/12/06 08:28:48;;;;;;;;;;;;;;;18.68;42.99;101531.06;5090997;28;19928;-46
2022/12/06 08:31:15;;;;;;;;;;;;;;;18.67;43.06;101534.91;5112154;27;19924;-43
2022/12/06 08:33:41;;;;;;;;;;;;;;;18.65;42.97;101524.16;5093791;28;19939;-44
2022/12/06 08:36:07;;;;;;;;;;;;;;;18.67;43.00;101532.97;5103430;27;19971;-43
2022/12/06 08:38:33;;;;;;;;;;;;;;;18.65;42.75;101537.94;5097443;27;20026;-44
2022/12/06 08:40:59;;;;;;;;;;;;;;;18.66;42.78;101524.97;5118011;27;20023;-44
2022/12/06 08:43:24;;;;;;;;;;;;;;;18.67;43.04;101532.97;5115229;27;19927;-44
2022/12/06 08:45:51;;;;;;;;;;;;;;;18.68;42.94;101533.81;5117056;27;19932;-44
2022/12/06 08:48:16;;;;;;;;;;;;;;;18.67;42.70;101532.16;5116015;28;19927;-44
2022/12/06 08:50:42;;;;;;;;;;;;;;;18.66;42.92;101539.59;5097251;28;19936;-46
2022/12/06 08:53:07;;;;;;;;;;;;;;;18.66;43.07;101536.00;5116185;27;19932;-44
2022/12/06 08:55:33;;;;;;;;;;;;;;;18.66;42.68;101539.59;5112481;27;20030;-45
2022/12/06 08:57:59;;;;;;;;;;;;;;;18.66;42.99;101544.28;5120944;27;19942;-45
2022/12/06 09:00:24;;;;;;;;;;;;;;;18.66;42.69;101544.28;5117951;27;19931;-44
2022/12/06 09:02:50;;;;;;;;;;;;;;;18.65;42.55;101546.22;5118771;27;19931;-47
2022/12/06 09:05:15;;;;;;;;;;;;;;;18.64;42.82;101541.78;5112387;27;19932;-43
2022/12/06 09:07:41;;;;;;;;;;;;;;;18.65;42.63;101545.34;5109605;27;19931;-43
2022/12/06 09:10:07;;;;;;;;;;;;;;;18.65;42.82;101545.34;5108930;27;19928;-43
2022/12/06 09:12:32;;;;;;;;;;;;;;;18.63;42.62;101553.91;5097216;27;20553;-43
2022/12/06 09:14:58;;;;;;;;;;;;;;;18.64;42.96;101555.56;5112941;27;19935;-43
2022/12/06 09:17:24;;;;;;;;;;;;;;;18.65;43.05;101550.88;5115632;28;20336;-44
2022/12/06 09:19:49;;;;;;;;;;;;;;;18.65;42.93;101550.88;5117906;28;19942;-45
2022/12/06 09:22:15;;;;;;;;;;;;;;;18.65;43.09;101548.97;5112436;28;19976;-46
2022/12/06 09:24:40;;;;;;;;;;;;;;;18.38;43.37;101551.72;5117262;28;19924;-44
2022/12/06 09:27:06;;;;;;;;;;;;;;;18.60;42.91;101557.19;5112482;28;20285;-49
2022/12/06 09:29:33;;;;;;;;;;;;;;;18.65;43.06;101550.88;5113144;28;19927;-47
2022/12/06 09:32:05;;;;;;;;;;;;;;;18.67;42.95;101551.47;5103539;27;20020;-45
2022/12/06 09:34:31;;;;;;;;;;;;;;;18.66;42.92;101560.84;5105799;28;19931;-45
2022/12/06 09:36:58;;;;;;;;;;;;;;;18.66;43.21;101553.38;5109826;27;19928;-45
2022/12/06 09:39:26;;;;;;;;;;;;;;;18.66;43.26;101553.38;5105276;27;20006;-43
2022/12/06 09:42:12;;;;;;;;;;;;;;;18.66;43.01;101555.31;5110195;28;20132;-44
2022/12/06 09:44:48;;;;;;;;;;;;;;;18.66;43.34;101563.59;5096338;28;19924;-45
2022/12/06 09:47:34;;;;;;;;;;;;;;;18.66;43.37;101563.59;5109750;27;19958;-46
2022/12/06 09:50:04;;;;;;;;;;;;;;;18.66;43.34;101567.19;5098739;28;20058;-46
2022/12/06 09:52:49;;;;;;;;;;;;;;;18.66;43.39;101569.94;5107799;28;20071;-43
2022/12/06 09:55:20;;;;;;;;;;;;;;;18.67;43.19;101574.38;5100728;28;19970;-45
2022/12/06 09:57:51;;;;;;;;;;;;;;;18.67;43.29;101570.78;5116912;27;20486;-48
2022/12/06 10:00:18;;;;;;;;;;;;;;;18.67;43.08;101566.09;5117822;28;19970;-46
2022/12/06 10:03:08;;;;;;;;;;;;;;;18.67;43.24;101560.56;5116245;27;20349;-45
2022/12/06 10:05:54;;;;;;;;;;;;;;;18.68;42.95;101561.41;5114840;28;20404;-46
2022/12/06 10:08:39;;;;;;;;;;;;;;;18.69;43.42;101563.06;5101451;28;19923;-44
2022/12/06 10:11:08;;;;;;;;;;;;;;;18.67;43.28;101566.09;5104514;27;20006;-44
2022/12/06 10:16:20;;;;;;;;;;;;;;;18.69;43.47;101566.66;5152855;27;19929;-43
2022/12/06 10:18:57;;;;;;;;;;;;;;;18.69;43.33;101557.53;5148158;27;19927;-43
2022/12/06 10:21:27;;;;;;;;;;;;;;;18.69;43.53;101561.16;5151212;27;20062;-42
2022/12/06 10:26:35;;;;;;;;;;;;;;;18.68;43.32;101547.59;5149765;27;20294;-44
2022/12/06 10:29:07;;;;;;;;;;;;;;;18.70;43.45;101548.22;5132993;27;20007;-45
2022/12/06 10:31:38;;;;;;;;;;;;;;;18.69;43.15;101540.97;5129751;27;20010;-44
2022/12/06 10:34:06;;;;;;;;;;;;;;;18.69;43.39;101540.97;5126267;27;20030;-45
2022/12/06 10:36:52;;;;;;;;;;;;;;;18.69;43.49;101539.09;5128889;27;20702;-44
2022/12/06 10:39:22;;;;;;;;;;;;;;;18.69;43.55;101536.31;5107790;27;20011;-43
2022/12/06 10:41:51;;;;;;;;;;;;;;;18.69;43.57;101540.97;5110263;27;19966;-44
2022/12/06 10:44:19;;;;;;;;;;;;;;;18.70;43.45;101539.94;5125494;27;20010;-44
2022/12/06 10:47:05;;;;;;;;;;;;;;;18.69;43.38;101541.84;5133027;27;19994;-44
2022/12/06 10:49:35;;;;;;;;;;;;;;;18.69;43.49;101536.31;5132851;27;19931;-43
2022/12/06 10:52:21;;;;;;;;;;;;;;;18.70;43.21;101539.94;5125790;27;20071;-46
2022/12/06 10:54:52;;;;;;;;;;;;;;;18.70;43.36;101534.41;5110954;27;20026;-46
2022/12/06 10:57:21;;;;;;;;;;;;;;;18.69;43.53;101538.22;5136133;27;20022;-45
2022/12/06 10:59:50;;;;;;;;;;;;;;;18.70;43.43;101529.72;5134108;27;19978;-45
2022/12/06 11:02:21;;;;;;;;;;;;;;;18.70;43.60;101524.22;5127582;27;19967;-46
2022/12/06 11:04:47;;;;;;;;;;;;;;;18.70;43.28;101526.97;5133841;27;19964;-44
2022/12/06 11:07:14;;;;;;;;;;;;;;;18.70;43.60;101526.97;5116182;27;20144;-44
2022/12/06 11:09:41;;;;;;;;;;;;;;;18.70;43.48;101521.47;5130409;27;20002;-47
2022/12/06 11:12:26;;;;;;;;;;;;;;;18.70;43.35;101521.47;5121598;27;20014;-45
2022/12/06 11:15:16;;;;;;;;;;;;;;;18.70;43.41;101513.19;5117844;27;19936;-45
2022/12/06 11:17:43;;;;;;;;;;;;;;;18.69;43.71;101522.53;5131717;27;19975;-45
2022/12/06 11:20:28;;;;;;;;;;;;;;;18.70;43.50;101515.94;5134701;27;20473;-45
2022/12/06 11:23:14;;;;;;;;;;;;;;;18.70;43.78;101512.34;5113661;27;19974;-47
2022/12/06 11:25:42;;;;;;;;;;;;;;;18.70;43.53;101498.56;5115287;27;19989;-48
2022/12/06 11:28:20;;;;;;;;;;;;;;;18.73;44.22;101512.63;5131091;27;20020;-44
2022/12/06 11:30:48;;;;;;;;;;;;;;;18.76;44.12;101505.75;5138198;27;20404;-46
2022/12/06 11:33:14;;;;;;;;;;;;;;;18.76;44.05;101500.25;5133883;27;19979;-43
2022/12/06 11:35:40;;;;;;;;;;;;;;;18.73;44.08;101509.88;5129367;27;20080;-44
2022/12/06 11:38:06;;;;;;;;;;;;;;;18.73;44.05;101509.88;5117844;27;19931;-49
2022/12/06 11:40:34;;;;;;;;;;;;;;;18.70;44.31;101506.84;5114918;27;21801;-43
2022/12/06 11:43:00;;;;;;;;;;;;;;;18.71;44.25;101511.25;5096625;27;19931;-45
2022/12/06 11:45:28;;;;;;;;;;;;;;;18.76;44.05;101508.53;5114106;27;20009;-44
2022/12/06 11:47:54;;;;;;;;;;;;;;;18.76;43.97;101503.00;5113118;27;20027;-46
2022/12/06 11:50:20;;;;;;;;;;;;;;;18.75;44.00;101512.38;5107487;27;19927;-46
2022/12/06 11:52:48;;;;;;;;;;;;;;;18.74;44.11;101508.81;5113994;27;19985;-45
2022/12/06 11:55:15;;;;;;;;;;;;;;;18.74;44.07;101513.50;5109010;27;20018;-43
2022/12/06 11:57:45;;;;;;;;;;;;;;;18.73;44.18;101515.38;5116119;27;19931;-44
2022/12/06 12:00:16;;;;;;;;;;;;;;;18.74;43.87;101516.25;5097748;28;19927;-44
2022/12/06 12:02:43;;;;;;;;;;;;;;;18.74;44.42;101513.50;5112141;27;19924;-44
2022/12/06 12:05:19;;;;;;;;;;;;;;;18.74;44.22;101514.31;5097624;28;19931;-44
2022/12/06 12:07:47;;;;;;;;;;;;;;;18.80;44.03;101515.19;5116900;27;20026;-49
2022/12/06 12:10:30;;;;;;;;;;;;;;;18.78;43.88;101507.19;5119510;27;19924;-46
2022/12/06 12:15:46;;;;;;;;;;;;;;;18.76;44.01;101500.25;5091323;28;20010;-43
2022/12/06 12:18:22;;;;;;;;;;;;;;;18.75;43.76;101496.66;5111003;27;20062;-44
2022/12/06 12:20:48;;;;;;;;;;;;;;;18.75;43.94;101501.34;5118886;27;20058;-48
2022/12/06 12:23:15;;;;;;;;;;;;;;;18.75;44.04;101496.66;5115098;27;20465;-43
2022/12/06 12:25:42;;;;;;;;;;;;;;;18.76;44.00;101490.03;5108241;27;20455;-46
2022/12/06 12:28:24;;;;;;;;;;;;;;;18.77;43.67;101485.34;5114591;27;20036;-45
2022/12/06 12:30:51;;;;;;;;;;;;;;;18.76;43.71;101483.69;5099244;27;20719;-44
2022/12/06 12:33:18;;;;;;;;;;;;;;;18.77;44.04;101486.19;5095469;28;19970;-44
2022/12/06 12:35:44;;;;;;;;;;;;;;;18.78;43.95;101490.63;5110225;27;19954;-45
2022/12/06 12:40:45;;;;;;;;;;;;;;;18.77;44.00;101485.34;5148663;27;20302;-44
2022/12/06 12:46:05;;;;;;;;;;;;;;;18.78;43.96;101487.00;5143925;27;20007;-44
2022/12/06 12:48:30;;;;;;;;;;;;;;;18.78;43.90;101485.09;5124300;27;20085;-45
2022/12/06 12:50:57;;;;;;;;;;;;;;;18.76;44.02;101495.56;5146859;27;21769;-43
2022/12/06 12:53:32;;;;;;;;;;;;;;;18.78;43.94;101489.75;5135255;27;20075;-44
2022/12/06 12:56:05;;;;;;;;;;;;;;;18.77;44.05;101488.94;5148967;27;19934;-43
2022/12/06 12:58:31;;;;;;;;;;;;;;;18.77;44.07;101486.19;5145230;27;20354;-44
2022/12/06 13:01:02;;;;;;;;;;;;;;;18.78;44.09;101489.75;5152642;27;19930;-45
2022/12/06 13:03:27;;;;;;;;;;;;;;;18.78;43.89;101490.63;5131255;27;20022;-44
2022/12/06 13:06:14;;;;;;;;;;;;;;;18.78;43.95;101485.09;5115716;27;19928;-44
2022/12/06 13:08:40;;;;;;;;;;;;;;;18.80;43.96;101482.91;5127894;27;19966;-43
2022/12/06 13:11:06;;;;;;;;;;;;;;;18.78;44.08;101485.09;5138584;27;19931;-44
2022/12/06 13:13:34;;;;;;;;;;;;;;;18.80;43.79;101490.34;5135485;27;20434;-45
2022/12/06 13:15:59;;;;;;;;;;;;;;;18.81;44.00;101486.47;5126547;27;19966;-45